Time;durP1;ratioP1;P1;durP2;ratioP2;P2;SDS_P1;SDS_P2;PMS_P1;PMS_P2;Temp;Humidity;BMP_temperature;BMP_pressure;BME280_temperature;BME280_humidity;BME280_pressure;Samples;Min_cycle;Max_cycle;Signal;HPM_P1;HPM_P2
2021/06/06 00:02:10;;;;;;;6.30;2.60;;;21.40;90.70;;;;;;5094509;28;20027;-79
2021/06/06 00:04:43;;;;;;;2.65;2.45;;;21.30;91.10;;;;;;5094343;28;20684;-78
2021/06/06 00:07:10;;;;;;;4.82;2.80;;;21.40;90.90;;;;;;5093567;28;20107;-79
2021/06/06 00:09:36;;;;;;;2.50;2.30;;;21.30;91.30;;;;;;5094019;28;20043;-78
2021/06/06 00:12:02;;;;;;;2.22;1.85;;;21.30;91.10;;;;;;5081966;28;20024;-78
2021/06/06 00:14:31;;;;;;;4.05;2.38;;;21.20;91.40;;;;;;5088842;28;20036;-79
2021/06/06 00:16:59;;;;;;;5.50;2.05;;;21.20;91.50;;;;;;5094177;28;20475;-78
2021/06/06 00:19:26;;;;;;;4.30;2.00;;;21.10;91.20;;;;;;5093845;28;20024;-78
2021/06/06 00:21:55;;;;;;;2.63;1.95;;;21.10;90.80;;;;;;5093874;28;20036;-78
2021/06/06 00:24:24;;;;;;;2.10;1.77;;;21.10;90.00;;;;;;5093829;28;20081;-78
2021/06/06 00:26:50;;;;;;;3.15;1.70;;;21.10;90.20;;;;;;5092839;28;20060;-78
2021/06/06 00:29:16;;;;;;;1.60;1.38;;;21.10;90.50;;;;;;5092950;28;20039;-79
2021/06/06 00:31:42;;;;;;;2.35;1.63;;;21.00;89.00;;;;;;5092604;28;20024;-79
2021/06/06 00:34:08;;;;;;;3.58;1.33;;;21.00;88.10;;;;;;5092561;28;20094;-78
2021/06/06 00:36:34;;;;;;;2.83;1.02;;;21.00;88.10;;;;;;5093959;28;20356;-78
2021/06/06 00:39:00;;;;;;;1.15;1.08;;;21.00;85.80;;;;;;5093645;28;20020;-78
2021/06/06 00:41:28;;;;;;;0.73;0.73;;;21.10;84.80;;;;;;5086737;28;20063;-78
2021/06/06 00:43:55;;;;;;;0.98;0.90;;;21.10;84.70;;;;;;5073592;28;20029;-78
2021/06/06 00:46:23;;;;;;;4.53;1.05;;;21.00;84.00;;;;;;5073315;28;20029;-78
2021/06/06 00:48:49;;;;;;;0.90;0.90;;;20.90;84.00;;;;;;5074531;28;20383;-78
2021/06/06 00:51:18;;;;;;;1.15;1.02;;;21.00;84.00;;;;;;5093777;28;20024;-78
2021/06/06 00:53:52;;;;;;;1.33;0.95;;;20.90;83.90;;;;;;5093529;28;20028;-78
2021/06/06 00:56:25;;;;;;;1.52;1.00;;;21.00;84.10;;;;;;5092287;28;20020;-78
2021/06/06 00:58:54;;;;;;;1.50;1.40;;;21.00;83.80;;;;;;5093542;28;20048;-78
2021/06/06 01:01:22;;;;;;;3.15;0.90;;;21.00;83.90;;;;;;5093223;28;20047;-78
2021/06/06 01:03:50;;;;;;;1.88;1.23;;;21.00;82.50;;;;;;5092851;28;20059;-78
2021/06/06 01:06:23;;;;;;;4.55;1.10;;;21.10;82.20;;;;;;5093541;28;20024;-79
2021/06/06 01:08:49;;;;;;;1.08;1.08;;;21.20;81.80;;;;;;5091869;28;20452;-78
2021/06/06 01:11:23;;;;;;;1.92;1.65;;;21.30;81.90;;;;;;5093403;28;20107;-79
2021/06/06 01:13:55;;;;;;;0.90;0.90;;;21.40;82.10;;;;;;5093003;28;20032;-78
2021/06/06 01:16:46;;;;;;;2.15;1.38;;;21.40;83.30;;;;;;5093367;28;20386;-78
2021/06/06 01:19:33;;;;;;;1.15;1.00;;;21.40;84.00;;;;;;5124797;27;20028;-78
2021/06/06 01:22:28;;;;;;;1.23;1.23;;;21.30;84.30;;;;;;5093014;28;20051;-78
2021/06/06 01:25:07;;;;;;;2.53;1.00;;;21.30;84.80;;;;;;5061043;28;20035;-78
2021/06/06 01:27:36;;;;;;;2.55;0.90;;;21.20;85.80;;;;;;5093171;28;20090;-79
2021/06/06 01:30:08;;;;;;;3.00;0.95;;;21.20;86.10;;;;;;5091582;28;20028;-78
2021/06/06 01:32:45;;;;;;;1.42;1.25;;;21.20;86.60;;;;;;5092783;28;20028;-78
2021/06/06 01:35:29;;;;;;;1.75;1.00;;;21.20;87.20;;;;;;5093037;28;20081;-79
2021/06/06 01:38:12;;;;;;;3.15;1.17;;;21.20;87.50;;;;;;5092502;28;20031;-78
2021/06/06 01:40:40;;;;;;;2.60;1.55;;;21.20;88.10;;;;;;5091172;28;20020;-78
2021/06/06 01:43:12;;;;;;;2.72;1.17;;;21.10;89.00;;;;;;5092460;28;20028;-78
2021/06/06 01:45:44;;;;;;;6.63;1.00;;;21.00;90.00;;;;;;5091532;28;20028;-78
2021/06/06 01:48:12;;;;;;;2.25;1.08;;;20.90;90.10;;;;;;5091404;28;20141;-78
2021/06/06 01:51:00;;;;;;;1.00;1.00;;;20.80;90.10;;;;;;5092829;28;20031;-79
2021/06/06 01:53:27;;;;;;;1.63;1.60;;;20.80;90.30;;;;;;5090968;28;20032;-79
2021/06/06 01:55:57;;;;;;;1.35;1.15;;;20.70;90.40;;;;;;5091413;28;20373;-78
2021/06/06 01:58:24;;;;;;;2.10;1.30;;;20.70;90.70;;;;;;5092735;28;20021;-78
2021/06/06 02:01:18;;;;;;;1.00;1.00;;;20.50;90.90;;;;;;5093023;28;20024;-78
2021/06/06 02:03:48;;;;;;;3.17;1.50;;;20.50;91.10;;;;;;5088689;28;20043;-78
2021/06/06 02:06:16;;;;;;;1.02;1.02;;;20.50;91.10;;;;;;5092880;28;20553;-78
2021/06/06 02:08:44;;;;;;;3.95;1.67;;;20.50;91.10;;;;;;5092617;28;20039;-78
2021/06/06 02:11:19;;;;;;;3.13;1.17;;;20.50;91.10;;;;;;5087743;28;20024;-78
2021/06/06 02:14:09;;;;;;;2.38;1.30;;;20.50;91.10;;;;;;5071143;28;20039;-79
2021/06/06 02:16:42;;;;;;;3.88;1.50;;;20.50;90.90;;;;;;5072625;28;20364;-78
2021/06/06 02:19:08;;;;;;;1.40;1.20;;;20.50;90.80;;;;;;5072402;28;20030;-78
2021/06/06 02:21:35;;;;;;;1.58;1.48;;;20.60;90.70;;;;;;5070842;28;20045;-78
2021/06/06 02:24:02;;;;;;;1.25;1.23;;;20.60;90.30;;;;;;5072212;28;20071;-79
2021/06/06 02:26:36;;;;;;;1.40;1.30;;;20.60;90.60;;;;;;5072407;28;20042;-79
2021/06/06 02:29:31;;;;;;;2.75;1.02;;;20.60;90.60;;;;;;5072370;28;20027;-79
2021/06/06 02:32:04;;;;;;;1.00;1.00;;;20.60;90.50;;;;;;5071059;28;20024;-79
2021/06/06 02:34:45;;;;;;;1.05;1.00;;;20.60;90.40;;;;;;5072206;28;20032;-79
2021/06/06 02:37:53;;;;;;;1.92;1.23;;;20.60;90.50;;;;;;5072109;28;20040;-78
2021/06/06 02:40:32;;;;;;;1.38;1.02;;;20.60;90.60;;;;;;5029922;28;20084;-78
2021/06/06 02:43:07;;;;;;;1.70;1.00;;;20.60;89.80;;;;;;5070164;28;20491;-78
2021/06/06 02:45:34;;;;;;;3.55;1.67;;;20.70;90.40;;;;;;5070869;28;20082;-78
2021/06/06 02:48:15;;;;;;;1.10;1.10;;;20.60;90.50;;;;;;5070817;28;20102;-79
2021/06/06 02:50:43;;;;;;;1.25;1.15;;;20.70;90.70;;;;;;5074467;28;20032;-78
2021/06/06 02:53:47;;;;;;;1.50;1.17;;;20.70;90.80;;;;;;5093899;28;20105;-78
2021/06/06 02:56:19;;;;;;;1.27;1.17;;;20.60;90.90;;;;;;5102532;27;20028;-78
2021/06/06 02:58:52;;;;;;;2.53;1.08;;;20.60;90.60;;;;;;5075499;28;20021;-78
2021/06/06 03:01:31;;;;;;;3.22;1.08;;;20.70;91.10;;;;;;5075517;28;20028;-78
2021/06/06 03:04:02;;;;;;;3.85;1.15;;;20.60;91.10;;;;;;5074211;28;20163;-78
2021/06/06 03:06:39;;;;;;;3.00;1.40;;;20.70;91.20;;;;;;5075435;28;20025;-79
2021/06/06 03:09:07;;;;;;;1.23;1.20;;;20.70;91.30;;;;;;5075325;28;20036;-78
2021/06/06 03:11:33;;;;;;;2.10;1.38;;;20.70;91.10;;;;;;5075394;28;20032;-79
2021/06/06 03:14:07;;;;;;;1.17;1.10;;;20.70;90.30;;;;;;5087316;28;20027;-78
2021/06/06 03:16:38;;;;;;;0.80;0.80;;;20.60;90.50;;;;;;5095428;28;20043;-79
2021/06/06 03:19:06;;;;;;;1.33;1.27;;;20.50;90.90;;;;;;5095116;28;20069;-78
2021/06/06 03:21:43;;;;;;;1.05;1.05;;;20.50;91.30;;;;;;5093197;28;20043;-78
2021/06/06 03:24:22;;;;;;;1.33;1.23;;;20.50;91.70;;;;;;5095347;28;20031;-79
2021/06/06 03:26:50;;;;;;;1.33;1.23;;;20.40;91.80;;;;;;5095011;28;20036;-79
2021/06/06 03:29:21;;;;;;;1.40;1.40;;;20.40;92.10;;;;;;5095127;28;20103;-78
2021/06/06 03:32:01;;;;;;;1.20;1.20;;;20.30;92.20;;;;;;5094907;28;20364;-79
2021/06/06 03:34:26;;;;;;;1.30;1.27;;;20.20;92.40;;;;;;5093779;28;20035;-78
2021/06/06 03:36:53;;;;;;;1.13;1.10;;;20.20;92.30;;;;;;5095135;28;20020;-79
2021/06/06 03:39:27;;;;;;;1.52;1.35;;;20.20;92.30;;;;;;5093896;28;20421;-78
2021/06/06 03:41:57;;;;;;;1.10;1.10;;;20.20;92.30;;;;;;5094661;28;20058;-78
2021/06/06 03:44:24;;;;;;;3.03;1.20;;;20.20;92.20;;;;;;5094674;28;20066;-78
2021/06/06 03:46:50;;;;;;;1.42;1.33;;;20.20;92.10;;;;;;5094700;28;20036;-78
2021/06/06 03:49:17;;;;;;;1.45;1.15;;;20.20;92.20;;;;;;5092322;28;20020;-79
2021/06/06 03:51:44;;;;;;;4.07;1.48;;;20.20;92.20;;;;;;5093509;28;20391;-78
2021/06/06 03:54:11;;;;;;;1.85;1.75;;;20.20;92.10;;;;;;5093545;28;20032;-79
2021/06/06 03:56:38;;;;;;;1.10;1.10;;;20.20;92.30;;;;;;5094296;28;20069;-78
2021/06/06 03:59:06;;;;;;;1.90;1.15;;;20.10;92.60;;;;;;5094070;28;20028;-78
2021/06/06 04:01:32;;;;;;;1.38;1.30;;;20.10;92.70;;;;;;5094555;28;20073;-78
2021/06/06 04:03:58;;;;;;;1.35;1.20;;;20.10;93.00;;;;;;5094466;28;20039;-78
2021/06/06 04:06:24;;;;;;;1.40;1.30;;;20.00;93.10;;;;;;5094632;28;20013;-78
2021/06/06 04:08:51;;;;;;;1.52;1.42;;;19.90;93.30;;;;;;5092942;28;20031;-78
2021/06/06 04:11:17;;;;;;;1.50;1.40;;;19.90;93.40;;;;;;5094339;28;20082;-79
2021/06/06 04:13:43;;;;;;;1.90;1.48;;;19.80;93.40;;;;;;5094155;28;20020;-78
2021/06/06 04:16:09;;;;;;;1.65;1.30;;;19.90;93.70;;;;;;5092871;28;20016;-78
2021/06/06 04:18:36;;;;;;;4.00;1.30;;;19.90;93.70;;;;;;5092781;28;20020;-78
2021/06/06 04:21:15;;;;;;;1.48;1.38;;;19.80;93.40;;;;;;5093096;28;20430;-78
2021/06/06 04:23:40;;;;;;;1.70;1.25;;;19.80;93.60;;;;;;5094007;28;20115;-78
2021/06/06 04:26:07;;;;;;;2.20;1.38;;;19.90;93.80;;;;;;5092976;28;20127;-78
2021/06/06 04:28:34;;;;;;;1.83;1.52;;;19.80;94.00;;;;;;5092594;28;20028;-78
2021/06/06 04:31:00;;;;;;;1.90;1.50;;;19.80;93.90;;;;;;5093957;28;20032;-78
2021/06/06 04:33:26;;;;;;;1.40;1.30;;;19.80;94.10;;;;;;5093911;28;20024;-78
2021/06/06 04:35:52;;;;;;;2.35;1.13;;;19.80;94.20;;;;;;5092447;28;20027;-78
2021/06/06 04:38:22;;;;;;;1.23;1.23;;;19.80;94.40;;;;;;5093742;28;20028;-78
2021/06/06 04:40:50;;;;;;;2.08;1.20;;;19.90;94.10;;;;;;5093831;28;20024;-78
2021/06/06 04:43:16;;;;;;;1.33;1.23;;;19.90;93.70;;;;;;5093898;28;20059;-78
2021/06/06 04:45:42;;;;;;;1.42;1.33;;;20.00;93.70;;;;;;5092621;28;20044;-78
2021/06/06 04:48:18;;;;;;;1.50;1.40;;;20.10;93.50;;;;;;5093635;28;20032;-78
2021/06/06 04:50:45;;;;;;;1.70;1.17;;;20.10;93.30;;;;;;5093552;28;20459;-79
2021/06/06 04:53:12;;;;;;;1.45;1.33;;;20.20;92.90;;;;;;5092052;28;20429;-79
2021/06/06 04:55:38;;;;;;;1.55;1.30;;;20.20;93.00;;;;;;5093589;28;20123;-78
2021/06/06 04:58:05;;;;;;;2.65;1.40;;;20.20;92.80;;;;;;5093528;28;20024;-78
2021/06/06 05:00:33;;;;;;;1.63;1.52;;;20.10;93.00;;;;;;5092298;28;20020;-78
2021/06/06 05:02:59;;;;;;;1.45;1.45;;;20.20;93.20;;;;;;5093420;28;20039;-78
2021/06/06 05:05:25;;;;;;;2.83;1.52;;;20.30;93.10;;;;;;5093444;28;20024;-78
2021/06/06 05:08:00;;;;;;;1.63;1.30;;;20.30;93.00;;;;;;5093103;28;20028;-79
2021/06/06 05:10:29;;;;;;;1.80;1.42;;;20.40;93.00;;;;;;5093158;28;20039;-78
2021/06/06 05:12:55;;;;;;;3.72;1.38;;;20.50;92.90;;;;;;5092834;28;20028;-78
2021/06/06 05:15:25;;;;;;;1.38;1.38;;;20.70;92.80;;;;;;5093053;28;20015;-78
2021/06/06 05:17:52;;;;;;;2.97;1.20;;;20.80;92.70;;;;;;5093160;28;20028;-78
2021/06/06 05:20:21;;;;;;;1.80;1.40;;;20.90;92.40;;;;;;5093281;28;20065;-78
2021/06/06 05:22:47;;;;;;;2.25;1.60;;;20.80;92.30;;;;;;5091617;28;20044;-78
2021/06/06 05:25:14;;;;;;;4.28;1.70;;;20.80;92.90;;;;;;5093393;28;20016;-78
2021/06/06 05:27:41;;;;;;;2.28;2.08;;;20.90;92.70;;;;;;5093202;28;20035;-78
2021/06/06 05:30:09;;;;;;;3.17;1.50;;;20.90;92.90;;;;;;5091645;28;20047;-78
2021/06/06 05:32:35;;;;;;;3.13;1.60;;;21.00;93.10;;;;;;5091661;28;20031;-78
2021/06/06 05:35:01;;;;;;;1.70;1.60;;;21.00;93.20;;;;;;5092955;28;20024;-78
2021/06/06 05:37:27;;;;;;;1.55;1.45;;;21.10;92.40;;;;;;5092808;28;20028;-78
2021/06/06 05:39:53;;;;;;;3.83;1.50;;;21.20;92.40;;;;;;5091423;28;20032;-78
2021/06/06 05:42:19;;;;;;;2.65;1.50;;;21.30;91.70;;;;;;5092924;28;20028;-78
2021/06/06 05:44:45;;;;;;;1.92;1.83;;;21.30;91.70;;;;;;5092426;28;20023;-78
2021/06/06 05:47:11;;;;;;;2.42;1.80;;;21.30;91.90;;;;;;5092765;28;20035;-78
2021/06/06 05:49:37;;;;;;;1.95;1.85;;;21.30;92.00;;;;;;5092792;28;20024;-78
2021/06/06 05:52:04;;;;;;;1.90;1.80;;;21.40;92.10;;;;;;5092929;28;20024;-78
2021/06/06 05:54:30;;;;;;;1.98;1.75;;;21.30;92.20;;;;;;5091360;28;20024;-78
2021/06/06 05:56:55;;;;;;;2.45;1.92;;;21.40;92.50;;;;;;5091576;28;20028;-78
2021/06/06 05:59:22;;;;;;;5.28;1.88;;;21.40;92.20;;;;;;5091243;28;20477;-78
2021/06/06 06:01:47;;;;;;;2.45;2.25;;;21.30;92.10;;;;;;5092764;28;20096;-78
2021/06/06 06:04:13;;;;;;;3.50;2.08;;;21.40;92.30;;;;;;5091572;28;20054;-78
2021/06/06 06:06:39;;;;;;;2.00;1.90;;;21.50;92.70;;;;;;5092627;28;20056;-78
2021/06/06 06:09:06;;;;;;;4.80;2.25;;;21.60;92.20;;;;;;5092658;28;20027;-78
2021/06/06 06:11:33;;;;;;;3.80;2.53;;;21.50;91.80;;;;;;5092472;28;20025;-78
2021/06/06 06:13:59;;;;;;;4.93;2.40;;;21.40;91.60;;;;;;5091145;28;20050;-78
2021/06/06 06:16:29;;;;;;;6.13;2.45;;;21.50;91.90;;;;;;5091509;28;20062;-78
2021/06/06 06:18:55;;;;;;;3.20;2.33;;;21.50;91.60;;;;;;5092576;28;20024;-78
2021/06/06 06:21:24;;;;;;;4.43;2.10;;;21.60;92.10;;;;;;5091159;28;20078;-78
2021/06/06 06:23:50;;;;;;;3.00;2.38;;;21.60;91.30;;;;;;5095590;28;20020;-78
2021/06/06 06:26:16;;;;;;;3.85;1.90;;;21.70;91.80;;;;;;5096635;28;20637;-78
2021/06/06 06:28:46;;;;;;;2.38;2.17;;;21.80;91.70;;;;;;5094988;28;20027;-78
2021/06/06 06:31:13;;;;;;;3.13;2.08;;;21.90;91.70;;;;;;5095072;28;20039;-78
2021/06/06 06:33:40;;;;;;;3.30;1.95;;;21.90;91.60;;;;;;5096197;28;20391;-78
2021/06/06 06:36:07;;;;;;;2.17;1.63;;;22.00;91.80;;;;;;5096335;28;20024;-78
2021/06/06 06:38:33;;;;;;;1.63;1.52;;;22.10;90.90;;;;;;5096106;28;20379;-78
2021/06/06 06:41:00;;;;;;;3.10;1.77;;;22.10;90.30;;;;;;5096279;28;20501;-78
2021/06/06 06:43:26;;;;;;;7.32;1.63;;;22.20;90.60;;;;;;5096192;28;20493;-78
2021/06/06 06:45:54;;;;;;;2.45;2.25;;;22.20;90.60;;;;;;5096242;28;20051;-78
2021/06/06 06:48:22;;;;;;;3.55;1.95;;;22.30;90.40;;;;;;5096011;28;20025;-79
2021/06/06 06:50:49;;;;;;;3.38;2.17;;;22.40;90.00;;;;;;5096292;28;20020;-78
2021/06/06 06:53:15;;;;;;;3.65;2.03;;;22.40;90.80;;;;;;5095943;28;20504;-78
2021/06/06 06:55:41;;;;;;;2.38;2.17;;;22.40;90.30;;;;;;5094716;28;20111;-78
2021/06/06 06:58:08;;;;;;;2.38;2.10;;;22.50;90.80;;;;;;5095534;28;20077;-78
2021/06/06 07:00:42;;;;;;;3.35;2.83;;;22.50;90.70;;;;;;5095618;28;20028;-78
2021/06/06 07:03:11;;;;;;;3.17;2.63;;;22.60;90.10;;;;;;5095790;28;20487;-78
2021/06/06 07:05:37;;;;;;;3.13;2.92;;;22.60;90.50;;;;;;5095612;28;20028;-78
2021/06/06 07:08:11;;;;;;;3.90;3.20;;;22.70;90.40;;;;;;5095601;28;20075;-78
2021/06/06 07:10:39;;;;;;;3.70;3.40;;;22.60;90.60;;;;;;5094351;28;20039;-77
2021/06/06 07:13:06;;;;;;;4.70;4.28;;;22.60;90.40;;;;;;5095435;28;20021;-78
2021/06/06 07:15:32;;;;;;;4.05;3.75;;;22.70;91.00;;;;;;5093788;28;20460;-78
2021/06/06 07:17:58;;;;;;;3.75;3.45;;;22.70;90.60;;;;;;5095154;28;20072;-78
2021/06/06 07:20:29;;;;;;;7.18;4.82;;;22.60;90.50;;;;;;5095405;28;20044;-78
2021/06/06 07:22:56;;;;;;;6.35;4.80;;;22.70;90.90;;;;;;5094780;28;20131;-78
2021/06/06 07:25:23;;;;;;;7.03;4.22;;;22.80;90.90;;;;;;5095540;28;20047;-78
2021/06/06 07:27:49;;;;;;;5.32;4.78;;;22.80;91.20;;;;;;5095319;28;20024;-78
2021/06/06 07:30:22;;;;;;;6.18;5.32;;;22.80;91.50;;;;;;5095244;28;20023;-78
2021/06/06 07:32:48;;;;;;;5.70;4.15;;;22.80;91.50;;;;;;5095238;28;20022;-78
2021/06/06 07:35:15;;;;;;;4.97;4.22;;;22.80;91.30;;;;;;5093378;28;20021;-78
2021/06/06 07:37:41;;;;;;;10.02;5.85;;;22.80;91.60;;;;;;5093699;28;20024;-78
2021/06/06 07:40:09;;;;;;;7.20;5.13;;;22.90;91.10;;;;;;5093667;28;20024;-78
2021/06/06 07:42:35;;;;;;;7.80;5.80;;;22.90;91.70;;;;;;5078242;28;20449;-78
2021/06/06 07:45:03;;;;;;;11.00;5.60;;;23.00;91.50;;;;;;5108474;27;20115;-78
2021/06/06 07:47:29;;;;;;;7.78;5.38;;;22.90;90.90;;;;;;5093673;28;20028;-78
2021/06/06 07:49:56;;;;;;;8.70;5.18;;;22.90;91.20;;;;;;5094562;28;20028;-78
2021/06/06 07:52:22;;;;;;;8.90;5.20;;;23.00;91.60;;;;;;5093565;28;20020;-78
2021/06/06 07:54:48;;;;;;;6.55;5.72;;;23.10;91.80;;;;;;5094401;28;20036;-78
2021/06/06 07:57:14;;;;;;;5.20;4.80;;;23.10;91.10;;;;;;5092876;28;20025;-78
2021/06/06 07:59:40;;;;;;;7.03;5.28;;;23.20;91.20;;;;;;5092607;28;20024;-78
2021/06/06 08:02:05;;;;;;;8.55;5.57;;;23.20;90.70;;;;;;5094125;28;20016;-78
2021/06/06 08:04:31;;;;;;;5.65;4.47;;;23.20;89.90;;;;;;5092740;28;20027;-78
2021/06/06 08:06:57;;;;;;;9.55;4.90;;;23.20;90.50;;;;;;5092904;28;20020;-78
2021/06/06 08:09:23;;;;;;;6.80;4.07;;;23.30;90.70;;;;;;5094202;28;20038;-78
2021/06/06 08:11:49;;;;;;;8.40;4.22;;;23.30;90.80;;;;;;5094423;28;20491;-78
2021/06/06 08:14:15;;;;;;;5.30;3.50;;;23.40;90.30;;;;;;5092642;28;20035;-78
2021/06/06 08:16:42;;;;;;;4.10;3.25;;;23.30;90.30;;;;;;5094053;28;20024;-78
2021/06/06 08:19:07;;;;;;;4.88;4.03;;;23.40;90.10;;;;;;5093974;28;20024;-77
2021/06/06 08:21:41;;;;;;;4.50;3.45;;;23.40;89.10;;;;;;5092762;28;20048;-78
2021/06/06 08:24:08;;;;;;;8.40;3.60;;;23.30;89.20;;;;;;5094120;28;20023;-78
2021/06/06 08:26:34;;;;;;;7.45;3.50;;;23.40;90.40;;;;;;5094261;28;20028;-78
2021/06/06 08:28:59;;;;;;;5.75;4.57;;;23.50;89.60;;;;;;5092758;28;20036;-78
2021/06/06 08:31:30;;;;;;;4.25;3.85;;;23.40;88.00;;;;;;5093808;28;20028;-78
2021/06/06 08:33:56;;;;;;;5.30;3.70;;;23.50;88.30;;;;;;5092388;28;20031;-78
2021/06/06 08:36:29;;;;;;;5.82;3.35;;;23.50;87.90;;;;;;5093882;28;20095;-78
2021/06/06 08:38:57;;;;;;;4.05;3.55;;;23.60;89.10;;;;;;5092233;28;20120;-78
2021/06/06 08:41:48;;;;;;;8.32;4.60;;;23.70;87.60;;;;;;5085652;28;20026;-78
2021/06/06 08:44:33;;;;;;;11.70;4.17;;;23.70;86.60;;;;;;5053820;28;20036;-77
2021/06/06 08:47:04;;;;;;;4.68;4.10;;;23.70;86.90;;;;;;5073388;28;20247;-78
2021/06/06 08:49:46;;;;;;;5.93;3.80;;;23.80;86.50;;;;;;5073256;28;20027;-78
2021/06/06 08:52:24;;;;;;;;;;;23.90;87.20;;;;;;5106306;28;20024;-78
2021/06/06 08:55:22;;;;;;;4.75;3.45;;;24.00;86.00;;;;;;5071887;28;19908;-78
2021/06/06 08:57:50;;;;;;;4.38;3.80;;;24.00;87.00;;;;;;5071774;28;20043;-77
2021/06/06 09:00:44;;;;;;;4.45;3.58;;;24.00;85.40;;;;;;5073357;28;20021;-78
2021/06/06 09:03:16;;;;;;;4.05;3.60;;;24.00;84.90;;;;;;5071826;28;20072;-78
2021/06/06 09:05:45;;;;;;;4.18;3.60;;;23.80;84.80;;;;;;5073142;28;20070;-78
2021/06/06 09:08:19;;;;;;;5.50;3.13;;;23.90;86.70;;;;;;5073075;28;20024;-77
2021/06/06 09:10:53;;;;;;;3.58;3.15;;;24.00;87.00;;;;;;5107186;28;20646;-78
2021/06/06 09:13:26;;;;;;;3.80;3.55;;;24.20;85.10;;;;;;5091049;28;20032;-78
2021/06/06 09:15:58;;;;;;;6.88;3.53;;;24.30;84.80;;;;;;5092797;28;20529;-78
2021/06/06 09:18:28;;;;;;;8.75;4.18;;;24.40;83.70;;;;;;5092451;28;20020;-78
2021/06/06 09:21:11;;;;;;;4.03;3.58;;;24.50;82.90;;;;;;5092665;28;20016;-77
2021/06/06 09:23:37;;;;;;;3.55;3.28;;;24.50;84.00;;;;;;5091660;28;20047;-77
2021/06/06 09:26:10;;;;;;;4.07;3.22;;;24.40;82.70;;;;;;5093105;28;20020;-78
2021/06/06 09:28:41;;;;;;;5.32;3.65;;;24.40;82.90;;;;;;5074501;28;20044;-78
2021/06/06 09:31:16;;;;;;;4.25;3.60;;;24.30;81.40;;;;;;5092408;28;20420;-77
2021/06/06 09:33:46;;;;;;;3.22;3.03;;;24.30;82.10;;;;;;5092981;28;20040;-77
2021/06/06 09:36:34;;;;;;;4.07;3.78;;;24.30;81.80;;;;;;5092755;28;20370;-77
2021/06/06 09:39:02;;;;;;;3.67;3.35;;;24.30;82.00;;;;;;5092743;28;20032;-78
2021/06/06 09:41:48;;;;;;;4.65;2.97;;;24.40;80.90;;;;;;5098363;28;20103;-77
2021/06/06 09:44:14;;;;;;;5.00;3.95;;;24.40;80.70;;;;;;5092989;28;20101;-78
2021/06/06 09:46:47;;;;;;;6.80;3.38;;;24.40;80.80;;;;;;5092917;28;20365;-78
2021/06/06 09:49:36;;;;;;;5.65;3.38;;;24.50;82.90;;;;;;5092815;28;20376;-77
2021/06/06 09:52:18;;;;;;;4.50;2.35;;;24.60;81.90;;;;;;5092302;28;20032;-78
2021/06/06 09:54:50;;;;;;;5.93;3.53;;;24.60;81.40;;;;;;5093928;28;20028;-78
2021/06/06 09:57:33;;;;;;;3.40;3.13;;;24.60;80.30;;;;;;5104590;28;20017;-78
2021/06/06 10:00:23;;;;;;;3.45;3.22;;;24.60;80.50;;;;;;5109768;28;20099;-78
2021/06/06 10:02:59;;;;;;;4.43;4.03;;;24.60;80.90;;;;;;5097551;28;20528;-77
2021/06/06 10:05:40;;;;;;;8.13;3.83;;;24.60;81.50;;;;;;5109483;28;20054;-78
2021/06/06 10:08:23;;;;;;;4.20;3.20;;;24.40;79.90;;;;;;5096580;28;20016;-77
2021/06/06 10:10:53;;;;;;;6.15;3.00;;;24.60;81.20;;;;;;5096492;28;20020;-78
2021/06/06 10:13:33;;;;;;;3.55;3.28;;;24.60;81.70;;;;;;5098517;28;20510;-78
2021/06/06 10:16:05;;;;;;;3.45;3.20;;;24.70;80.10;;;;;;5094649;28;20024;-78
2021/06/06 10:18:36;;;;;;;;;;;24.80;80.60;;;;;;5094309;28;20118;-78
2021/06/06 10:21:26;;;;;;;5.90;3.73;;;24.90;79.30;;;;;;5095906;28;19904;-77
2021/06/06 10:23:58;;;;;;;3.40;3.20;;;25.00;80.00;;;;;;5094719;28;20043;-78
2021/06/06 10:26:32;;;;;;;8.50;4.72;;;25.10;79.00;;;;;;5094799;28;20032;-78
2021/06/06 10:29:05;;;;;;;3.72;3.28;;;25.10;78.30;;;;;;5094989;28;20111;-78
2021/06/06 10:31:38;;;;;;;3.90;3.60;;;25.30;78.20;;;;;;5096464;28;20111;-78
2021/06/06 10:34:07;;;;;;;3.90;3.00;;;25.30;77.90;;;;;;5094875;28;20566;-77
2021/06/06 10:36:36;;;;;;;4.93;3.85;;;25.50;77.00;;;;;;5094901;28;20032;-78
2021/06/06 10:39:15;;;;;;;5.38;3.70;;;25.60;77.10;;;;;;5096226;28;20024;-78
2021/06/06 10:41:55;;;;;;;3.15;2.85;;;25.70;76.80;;;;;;5094751;28;20020;-78
2021/06/06 10:44:55;;;;;;;3.70;3.35;;;25.80;78.10;;;;;;5095967;28;20110;-78
2021/06/06 10:48:03;;;;;;;5.07;3.20;;;26.00;77.70;;;;;;5096035;28;20020;-78
2021/06/06 10:50:39;;;;;;;2.80;2.60;;;26.10;74.30;;;;;;5085633;28;20061;-77
2021/06/06 10:53:13;;;;;;;2.97;2.40;;;26.10;73.00;;;;;;5094663;28;20032;-78
2021/06/06 10:56:10;;;;;;;6.03;2.45;;;26.30;70.70;;;;;;5095968;28;20009;-77
2021/06/06 10:58:44;;;;;;;3.35;2.50;;;26.50;70.90;;;;;;5093480;28;20379;-78
2021/06/06 11:01:19;;;;;;;4.50;2.92;;;26.60;71.50;;;;;;5095645;28;20474;-78
2021/06/06 11:04:08;;;;;;;4.22;2.80;;;26.60;69.80;;;;;;5093967;28;20036;-78
2021/06/06 11:06:37;;;;;;;3.97;2.65;;;26.70;72.50;;;;;;5095752;28;20020;-78
2021/06/06 11:09:04;;;;;;;4.35;2.17;;;26.90;73.80;;;;;;5098135;28;20020;-78
2021/06/06 11:11:39;;;;;;;2.20;2.00;;;27.10;72.50;;;;;;5107002;27;20040;-78
2021/06/06 11:14:07;;;;;;;2.70;2.50;;;27.10;70.90;;;;;;5095144;28;20032;-78
2021/06/06 11:16:39;;;;;;;3.33;2.75;;;26.90;68.30;;;;;;5094265;28;20430;-78
2021/06/06 11:19:11;;;;;;;5.25;2.85;;;26.80;70.50;;;;;;5095366;28;20008;-78
2021/06/06 11:21:46;;;;;;;3.20;2.90;;;26.70;71.80;;;;;;5094936;28;20047;-77
2021/06/06 11:24:30;;;;;;;3.58;2.67;;;26.50;71.30;;;;;;5093391;28;20488;-77
2021/06/06 11:27:11;;;;;;;3.72;3.05;;;26.40;72.80;;;;;;5094894;28;20027;-77
2021/06/06 11:29:49;;;;;;;3.45;3.20;;;26.50;73.10;;;;;;5091534;28;20114;-77
2021/06/06 11:32:23;;;;;;;2.50;2.30;;;26.70;71.60;;;;;;5125152;27;20131;-78
2021/06/06 11:35:40;;;;;;;3.33;2.72;;;26.70;71.20;;;;;;5094838;28;20111;-78
2021/06/06 11:38:27;;;;;;;4.18;2.67;;;26.60;73.00;;;;;;5032115;28;20021;-78
2021/06/06 11:41:09;;;;;;;3.20;3.00;;;26.80;71.60;;;;;;5032579;28;20599;-78
2021/06/06 11:43:49;;;;;;;2.83;2.53;;;27.00;71.30;;;;;;5083324;28;20089;-78
2021/06/06 11:46:29;;;;;;;6.55;2.83;;;27.40;72.80;;;;;;5093341;28;20089;-77
2021/06/06 11:49:16;;;;;;;3.58;3.28;;;27.60;70.70;;;;;;5094958;28;20023;-77
2021/06/06 11:51:46;;;;;;;4.25;2.95;;;27.50;70.00;;;;;;5093101;28;20035;-78
2021/06/06 11:54:24;;;;;;;3.80;2.80;;;27.40;71.90;;;;;;5092857;28;20028;-77
2021/06/06 11:56:51;;;;;;;4.13;2.30;;;27.30;71.20;;;;;;5094169;28;20149;-77
2021/06/06 11:59:26;;;;;;;4.13;2.20;;;27.30;69.60;;;;;;5094123;28;20027;-77
2021/06/06 12:02:09;;;;;;;3.92;2.30;;;27.30;68.70;;;;;;5094340;28;20032;-77
2021/06/06 12:04:37;;;;;;;2.50;2.33;;;27.60;69.70;;;;;;5093111;28;20028;-78
2021/06/06 12:07:14;;;;;;;2.83;2.55;;;28.00;70.30;;;;;;5094085;28;20035;-77
2021/06/06 12:09:42;;;;;;;2.90;2.40;;;27.90;65.80;;;;;;5093642;28;20028;-78
2021/06/06 12:12:10;;;;;;;3.72;2.28;;;28.00;66.20;;;;;;5089673;28;20115;-77
2021/06/06 12:14:36;;;;;;;3.95;2.78;;;28.00;67.00;;;;;;5098700;28;20176;-78
2021/06/06 12:17:23;;;;;;;3.17;2.97;;;27.90;70.40;;;;;;5095368;28;20366;-78
2021/06/06 12:19:54;;;;;;;7.05;3.33;;;27.80;73.70;;;;;;5083868;28;20028;-78
2021/06/06 12:22:26;;;;;;;;;;;27.70;75.00;;;;;;5092997;28;20044;-78
2021/06/06 12:24:59;;;;;;;3.90;3.20;;;27.60;75.90;;;;;;5114116;28;19904;-78
2021/06/06 12:27:26;;;;;;;3.30;2.53;;;27.60;77.00;;;;;;5095763;28;20127;-78
2021/06/06 12:29:57;;;;;;;3.15;2.85;;;27.70;76.30;;;;;;5091894;28;20031;-78
2021/06/06 12:32:28;;;;;;;2.50;2.35;;;27.50;74.70;;;;;;5093947;28;20019;-78
2021/06/06 12:34:55;;;;;;;5.63;2.03;;;27.40;73.60;;;;;;5091642;28;20053;-78
2021/06/06 12:37:26;;;;;;;4.35;3.17;;;27.00;72.20;;;;;;5093339;28;20108;-78
2021/06/06 12:39:55;;;;;;;4.47;2.10;;;26.80;75.70;;;;;;5092404;28;20177;-78
2021/06/06 12:42:23;;;;;;;1.80;1.70;;;26.40;76.80;;;;;;5093110;28;20028;-78
2021/06/06 12:44:51;;;;;;;3.00;1.65;;;26.20;77.00;;;;;;5097830;28;20102;-78
2021/06/06 12:47:20;;;;;;;1.92;1.70;;;26.10;74.50;;;;;;5104441;28;20027;-78
2021/06/06 12:50:01;;;;;;;2.00;1.90;;;25.80;72.40;;;;;;5100217;28;20123;-78
2021/06/06 12:52:32;;;;;;;2.65;2.45;;;25.70;75.00;;;;;;5095026;28;20023;-78
2021/06/06 12:55:21;;;;;;;4.07;2.20;;;25.50;79.80;;;;;;5106822;28;20024;-78
2021/06/06 12:58:03;;;;;;;5.47;2.15;;;25.50;82.30;;;;;;5091522;28;20032;-78
2021/06/06 13:00:34;;;;;;;2.88;2.53;;;25.30;82.60;;;;;;5092157;28;20395;-78
2021/06/06 13:03:03;;;;;;;3.20;2.78;;;25.20;82.60;;;;;;5093249;28;20047;-78
2021/06/06 13:05:41;;;;;;;2.13;1.92;;;25.10;85.10;;;;;;5093276;28;20021;-78
2021/06/06 13:08:29;;;;;;;3.05;2.75;;;25.10;84.70;;;;;;5091845;28;20476;-78
2021/06/06 13:11:11;;;;;;;7.65;2.83;;;25.20;84.60;;;;;;5080990;28;20016;-78
2021/06/06 13:13:45;;;;;;;2.85;2.40;;;25.20;83.20;;;;;;5104412;28;20023;-78